Indianapolis International, IN

7:34 AM EDT on August 27, 2014 (GMT -0400)
Thompson Medows | Change Station
CLOSE
Current Station
Personal Weather Station
Location: Indianapolis, IN
Elevation: 745 ft
Nearby Weather Stations

Elev 745 ft 39.69 °N, 86.26 °W | Updated 17 minutes ago

Mostly Cloudy
Mostly Cloudy
69.8 °F
Feels Like 69.8 °F
N
0.0
Wind Variable Wind from NE

Today
High -- | Low -- °F
--% Chance of Precip.
Yesterday
High -- | Low -- °F
Precip. -- in
7:08 AM 8:24 PM
Waxing Crescent, 3% visible
Pressure 30.06 in
Visibility 10.0 miles
Clouds Scattered Clouds 4000 ft
Mostly Cloudy 17000 ft
Dew Point 70 °F
Humidity 99%
Rainfall 0.00 in
Snow Depth Not available.
UV 0 out of 12
Pollen 10.80 out of 12
Air Quality Not available.
Flu Activity Not available.
METAR KIND 271054Z 16004KT 10SM SCT040 BKN170 22/21 A3008 RMK AO2 SLP180 T02220206

More Conditions Fewer Conditions

Pressure 30.06 in
Visibility 10.0 miles
Clouds Scattered Clouds 4000 ft
Mostly Cloudy 17000 ft
Dew Point 70 °F
Humidity 99%
Rainfall 0.00 in
Snow Depth Not available.
UV 0 out of 12
Pollen 10.80 out of 12
Air Quality Not available.
Flu Activity Not available.
METAR KIND 271054Z 16004KT 10SM SCT040 BKN170 22/21 A3008 RMK AO2 SLP180 T02220206

More Conditions Fewer Conditions

10-Day Weather Forecast

Almanac

Astronomy

Aug. 27, 2014 Rise Set
Actual Time 7:08 AM EDT 8:24 PM EDT
Civil Twilight 6:40 AM EDT 8:51 PM EDT
Nautical Twilight 6:07 AM EDT 9:25 PM EDT
Astronomical Twilight 5:31 AM EDT 10:00 PM EDT
Moon 9:03 AM EDT 9:16 PM EDT
Length of Visible Light 14h 11m
Length of Day
13h 15m
Tomorrow will be 2m 27s shorter.
Waxing Crescent, 3% of the Moon is Illuminated
Today
Waxing Crescent
Sep 2
First Quarter
Sep 8
Full
Sep 15
Last Quarter
Sep 24
New

Today's Extremes

State Highs State Lows

Community

WunderPhotos

Upload Photos

1,747,670 photos uploaded!

Nearby

Air Quality

  Air Quality AQ Index Pollutant
Yesterday Good
PM10
Yesterday Good
OZONE
Wednesday Moderate
PM2.5
Wednesday Good
OZONE
Thursday Moderate
PM2.5
Thursday Good
OZONE
Friday Moderate
PM2.5
Friday Moderate
OZONE

Snow Depth

Station Depth Elevation
No new snow has been reported.

Earthquake Activity

City Distance Mag. Time & Date
No recent earthquake activity has been reported nearby.
Minimum magnitude displayed is 2.5.

Coastal Water Temperatures

Place Temperature
No Stations Reporting

Nearby Weather Stations